Terminal Aerodrome Forecast
Issued by NWS

Home | Current Version | Previous Version | Text Only | Print | Product List | Glossary On
Versions: 1 2 3 4 5 6 7 8 9 10 11 12 13 14 15 16 17 18
000
FTUS43 KPAH 271100
TAFCGI
TAF
KCGI 271122Z 2712/2812 17007KT 5SM BR OVC005
     FM271500 21006KT 3SM -SHRA BR OVC008
     FM272100 31007KT 4SM -RADZ BR OVC010
     FM280300 36012KT 3SM -RADZ BR OVC008=

USA.gov is the U.S. government's official web portal to all federal, state and local government web resources and services.